sensor_id;sensor_type;location;lat;lon;timestamp;P1;durP1;ratioP1;P2;durP2;ratioP2
3943;SDS011;1986;52.546;13.428;2023-07-31T00:01:01;15.47;;;14.67;;
3943;SDS011;1986;52.546;13.428;2023-07-31T00:03:28;14.87;;;14.27;;
3943;SDS011;1986;52.546;13.428;2023-07-31T00:05:55;16.10;;;15.23;;
3943;SDS011;1986;52.546;13.428;2023-07-31T00:08:23;15.00;;;14.40;;
3943;SDS011;1986;52.546;13.428;2023-07-31T00:10:51;15.83;;;15.17;;
3943;SDS011;1986;52.546;13.428;2023-07-31T00:13:21;15.83;;;15.13;;
3943;SDS011;1986;52.546;13.428;2023-07-31T00:15:48;15.97;;;15.27;;
3943;SDS011;1986;52.546;13.428;2023-07-31T00:18:15;15.40;;;14.80;;
3943;SDS011;1986;52.546;13.428;2023-07-31T00:20:42;15.90;;;15.20;;
3943;SDS011;1986;52.546;13.428;2023-07-31T00:23:09;14.50;;;13.90;;
3943;SDS011;1986;52.546;13.428;2023-07-31T00:25:37;14.50;;;13.90;;
3943;SDS011;1986;52.546;13.428;2023-07-31T00:28:04;15.33;;;14.63;;
3943;SDS011;1986;52.546;13.428;2023-07-31T00:30:31;14.47;;;13.87;;
3943;SDS011;1986;52.546;13.428;2023-07-31T00:32:58;14.50;;;13.90;;
3943;SDS011;1986;52.546;13.428;2023-07-31T00:35:25;15.70;;;14.90;;
3943;SDS011;1986;52.546;13.428;2023-07-31T00:37:52;15.10;;;14.50;;
3943;SDS011;1986;52.546;13.428;2023-07-31T00:40:19;15.60;;;15.00;;
3943;SDS011;1986;52.546;13.428;2023-07-31T00:42:47;16.30;;;15.60;;
3943;SDS011;1986;52.546;13.428;2023-07-31T00:45:14;16.47;;;15.77;;
3943;SDS011;1986;52.546;13.428;2023-07-31T00:47:41;16.80;;;16.00;;
3943;SDS011;1986;52.546;13.428;2023-07-31T00:50:08;14.97;;;14.37;;
3943;SDS011;1986;52.546;13.428;2023-07-31T00:52:36;14.70;;;14.10;;
3943;SDS011;1986;52.546;13.428;2023-07-31T00:55:03;14.50;;;13.90;;
3943;SDS011;1986;52.546;13.428;2023-07-31T00:57:30;14.57;;;13.97;;
3943;SDS011;1986;52.546;13.428;2023-07-31T01:00:01;14.30;;;13.70;;
3943;SDS011;1986;52.546;13.428;2023-07-31T01:02:28;15.10;;;14.50;;
3943;SDS011;1986;52.546;13.428;2023-07-31T01:04:55;14.60;;;14.00;;
3943;SDS011;1986;52.546;13.428;2023-07-31T01:07:25;14.53;;;13.93;;
3943;SDS011;1986;52.546;13.428;2023-07-31T01:10:00;14.63;;;14.03;;
3943;SDS011;1986;52.546;13.428;2023-07-31T01:12:30;14.03;;;13.53;;
3943;SDS011;1986;52.546;13.428;2023-07-31T01:15:06;13.80;;;13.30;;
3943;SDS011;1986;52.546;13.428;2023-07-31T01:17:36;14.30;;;13.70;;
3943;SDS011;1986;52.546;13.428;2023-07-31T01:20:03;13.97;;;13.47;;
3943;SDS011;1986;52.546;13.428;2023-07-31T01:22:39;13.70;;;13.20;;
3943;SDS011;1986;52.546;13.428;2023-07-31T01:25:33;14.50;;;13.90;;
3943;SDS011;1986;52.546;13.428;2023-07-31T01:28:37;14.40;;;13.90;;
3943;SDS011;1986;52.546;13.428;2023-07-31T01:31:14;14.40;;;13.90;;
3943;SDS011;1986;52.546;13.428;2023-07-31T01:33:44;13.77;;;13.27;;
3943;SDS011;1986;52.546;13.428;2023-07-31T01:36:12;13.90;;;13.40;;
3943;SDS011;1986;52.546;13.428;2023-07-31T01:38:41;12.50;;;12.10;;
3943;SDS011;1986;52.546;13.428;2023-07-31T01:41:09;12.70;;;12.30;;
3943;SDS011;1986;52.546;13.428;2023-07-31T01:43:37;13.10;;;12.70;;
3943;SDS011;1986;52.546;13.428;2023-07-31T01:46:04;13.30;;;12.90;;
3943;SDS011;1986;52.546;13.428;2023-07-31T01:48:31;12.33;;;11.93;;
3943;SDS011;1986;52.546;13.428;2023-07-31T01:51:00;11.70;;;11.40;;
3943;SDS011;1986;52.546;13.428;2023-07-31T01:53:28;11.67;;;11.37;;
3943;SDS011;1986;52.546;13.428;2023-07-31T01:55:56;11.37;;;11.07;;
3943;SDS011;1986;52.546;13.428;2023-07-31T01:58:23;10.40;;;10.10;;
3943;SDS011;1986;52.546;13.428;2023-07-31T02:00:51;9.63;;;9.43;;
3943;SDS011;1986;52.546;13.428;2023-07-31T02:03:18;9.00;;;8.80;;
3943;SDS011;1986;52.546;13.428;2023-07-31T02:05:45;8.60;;;8.40;;
3943;SDS011;1986;52.546;13.428;2023-07-31T02:08:13;8.20;;;8.00;;
3943;SDS011;1986;52.546;13.428;2023-07-31T02:10:41;7.60;;;7.50;;
3943;SDS011;1986;52.546;13.428;2023-07-31T02:13:08;7.27;;;7.17;;
3943;SDS011;1986;52.546;13.428;2023-07-31T02:15:35;6.70;;;6.60;;
3943;SDS011;1986;52.546;13.428;2023-07-31T02:18:04;6.60;;;6.50;;
3943;SDS011;1986;52.546;13.428;2023-07-31T02:20:33;7.40;;;7.30;;
3943;SDS011;1986;52.546;13.428;2023-07-31T02:23:00;7.40;;;7.30;;
3943;SDS011;1986;52.546;13.428;2023-07-31T02:25:27;7.17;;;7.07;;
3943;SDS011;1986;52.546;13.428;2023-07-31T02:27:56;6.40;;;6.30;;
3943;SDS011;1986;52.546;13.428;2023-07-31T02:30:23;6.70;;;6.60;;
3943;SDS011;1986;52.546;13.428;2023-07-31T02:32:50;6.60;;;6.50;;
3943;SDS011;1986;52.546;13.428;2023-07-31T02:35:18;6.50;;;6.40;;
3943;SDS011;1986;52.546;13.428;2023-07-31T02:37:45;7.20;;;7.10;;
3943;SDS011;1986;52.546;13.428;2023-07-31T02:40:12;7.57;;;7.47;;
3943;SDS011;1986;52.546;13.428;2023-07-31T02:42:39;7.37;;;7.27;;
3943;SDS011;1986;52.546;13.428;2023-07-31T02:45:07;7.50;;;7.40;;
3943;SDS011;1986;52.546;13.428;2023-07-31T02:47:34;7.73;;;7.63;;
3943;SDS011;1986;52.546;13.428;2023-07-31T02:50:03;9.00;;;8.50;;
3943;SDS011;1986;52.546;13.428;2023-07-31T02:52:32;8.33;;;8.13;;
3943;SDS011;1986;52.546;13.428;2023-07-31T02:54:59;9.53;;;9.00;;
3943;SDS011;1986;52.546;13.428;2023-07-31T02:57:26;7.60;;;7.50;;
3943;SDS011;1986;52.546;13.428;2023-07-31T02:59:54;6.97;;;6.87;;
3943;SDS011;1986;52.546;13.428;2023-07-31T03:02:21;6.60;;;6.50;;
3943;SDS011;1986;52.546;13.428;2023-07-31T03:04:48;7.07;;;6.97;;
3943;SDS011;1986;52.546;13.428;2023-07-31T03:07:15;8.00;;;7.90;;
3943;SDS011;1986;52.546;13.428;2023-07-31T03:09:44;7.50;;;7.40;;
3943;SDS011;1986;52.546;13.428;2023-07-31T03:12:11;7.10;;;7.00;;
3943;SDS011;1986;52.546;13.428;2023-07-31T03:14:37;6.50;;;6.40;;
3943;SDS011;1986;52.546;13.428;2023-07-31T03:17:04;6.47;;;6.37;;
3943;SDS011;1986;52.546;13.428;2023-07-31T03:19:32;8.17;;;7.97;;
3943;SDS011;1986;52.546;13.428;2023-07-31T03:21:59;6.80;;;6.70;;
3943;SDS011;1986;52.546;13.428;2023-07-31T03:24:26;6.30;;;6.20;;
3943;SDS011;1986;52.546;13.428;2023-07-31T03:26:55;7.13;;;7.03;;
3943;SDS011;1986;52.546;13.428;2023-07-31T03:29:22;6.50;;;6.40;;
3943;SDS011;1986;52.546;13.428;2023-07-31T03:31:49;6.20;;;6.10;;
3943;SDS011;1986;52.546;13.428;2023-07-31T03:34:19;7.17;;;6.97;;
3943;SDS011;1986;52.546;13.428;2023-07-31T03:36:46;7.43;;;7.33;;
3943;SDS011;1986;52.546;13.428;2023-07-31T03:39:13;6.70;;;6.60;;
3943;SDS011;1986;52.546;13.428;2023-07-31T03:41:40;7.10;;;7.00;;
3943;SDS011;1986;52.546;13.428;2023-07-31T03:44:08;8.50;;;8.10;;
3943;SDS011;1986;52.546;13.428;2023-07-31T03:46:35;7.73;;;7.63;;
3943;SDS011;1986;52.546;13.428;2023-07-31T03:49:02;7.00;;;6.90;;
3943;SDS011;1986;52.546;13.428;2023-07-31T03:51:29;9.60;;;9.30;;
3943;SDS011;1986;52.546;13.428;2023-07-31T03:53:56;7.70;;;7.60;;
3943;SDS011;1986;52.546;13.428;2023-07-31T03:56:23;8.70;;;8.50;;
3943;SDS011;1986;52.546;13.428;2023-07-31T03:58:50;8.40;;;8.20;;
3943;SDS011;1986;52.546;13.428;2023-07-31T04:01:19;9.20;;;9.00;;
3943;SDS011;1986;52.546;13.428;2023-07-31T04:03:48;9.70;;;9.50;;
3943;SDS011;1986;52.546;13.428;2023-07-31T04:06:15;10.63;;;10.33;;
3943;SDS011;1986;52.546;13.428;2023-07-31T04:08:43;11.00;;;10.70;;
3943;SDS011;1986;52.546;13.428;2023-07-31T04:11:10;11.20;;;10.90;;
3943;SDS011;1986;52.546;13.428;2023-07-31T04:13:37;11.20;;;10.90;;
3943;SDS011;1986;52.546;13.428;2023-07-31T04:16:04;12.80;;;12.20;;
3943;SDS011;1986;52.546;13.428;2023-07-31T04:18:32;12.60;;;12.20;;
3943;SDS011;1986;52.546;13.428;2023-07-31T04:20:59;13.67;;;13.17;;
3943;SDS011;1986;52.546;13.428;2023-07-31T04:23:27;13.03;;;12.63;;
3943;SDS011;1986;52.546;13.428;2023-07-31T04:25:54;13.57;;;13.07;;
3943;SDS011;1986;52.546;13.428;2023-07-31T04:28:23;13.30;;;12.80;;
3943;SDS011;1986;52.546;13.428;2023-07-31T04:30:51;12.50;;;12.10;;
3943;SDS011;1986;52.546;13.428;2023-07-31T04:33:21;12.20;;;11.80;;
3943;SDS011;1986;52.546;13.428;2023-07-31T04:35:50;12.70;;;12.30;;
3943;SDS011;1986;52.546;13.428;2023-07-31T04:38:18;13.37;;;12.87;;
3943;SDS011;1986;52.546;13.428;2023-07-31T04:40:45;13.43;;;12.93;;
3943;SDS011;1986;52.546;13.428;2023-07-31T04:43:12;15.60;;;14.60;;
3943;SDS011;1986;52.546;13.428;2023-07-31T04:45:41;13.83;;;13.33;;
3943;SDS011;1986;52.546;13.428;2023-07-31T04:48:08;13.30;;;12.90;;
3943;SDS011;1986;52.546;13.428;2023-07-31T04:50:35;14.87;;;14.07;;
3943;SDS011;1986;52.546;13.428;2023-07-31T04:53:04;13.43;;;12.93;;
3943;SDS011;1986;52.546;13.428;2023-07-31T04:55:31;13.70;;;13.10;;
3943;SDS011;1986;52.546;13.428;2023-07-31T04:57:58;13.10;;;12.60;;
3943;SDS011;1986;52.546;13.428;2023-07-31T05:00:28;13.00;;;12.60;;
3943;SDS011;1986;52.546;13.428;2023-07-31T05:02:55;12.60;;;12.20;;
3943;SDS011;1986;52.546;13.428;2023-07-31T05:05:22;11.87;;;11.47;;
3943;SDS011;1986;52.546;13.428;2023-07-31T05:07:49;12.93;;;12.53;;
3943;SDS011;1986;52.546;13.428;2023-07-31T05:10:17;12.80;;;12.40;;
3943;SDS011;1986;52.546;13.428;2023-07-31T05:12:44;11.73;;;11.43;;
3943;SDS011;1986;52.546;13.428;2023-07-31T05:15:11;12.37;;;11.97;;
3943;SDS011;1986;52.546;13.428;2023-07-31T05:17:38;13.27;;;12.77;;
3943;SDS011;1986;52.546;13.428;2023-07-31T05:20:06;11.60;;;11.30;;
3943;SDS011;1986;52.546;13.428;2023-07-31T05:22:34;11.60;;;11.30;;
3943;SDS011;1986;52.546;13.428;2023-07-31T05:25:01;11.20;;;10.90;;
3943;SDS011;1986;52.546;13.428;2023-07-31T05:27:31;12.17;;;11.77;;
3943;SDS011;1986;52.546;13.428;2023-07-31T05:29:59;12.40;;;12.00;;
3943;SDS011;1986;52.546;13.428;2023-07-31T05:32:26;11.30;;;11.00;;
3943;SDS011;1986;52.546;13.428;2023-07-31T05:34:53;10.90;;;10.60;;
3943;SDS011;1986;52.546;13.428;2023-07-31T05:37:21;9.70;;;9.50;;
3943;SDS011;1986;52.546;13.428;2023-07-31T05:39:48;11.03;;;10.73;;
3943;SDS011;1986;52.546;13.428;2023-07-31T05:42:15;10.50;;;10.20;;
3943;SDS011;1986;52.546;13.428;2023-07-31T05:44:44;10.10;;;9.90;;
3943;SDS011;1986;52.546;13.428;2023-07-31T05:47:11;10.90;;;10.60;;
3943;SDS011;1986;52.546;13.428;2023-07-31T05:49:37;10.50;;;10.20;;
3943;SDS011;1986;52.546;13.428;2023-07-31T05:52:05;11.63;;;11.33;;
3943;SDS011;1986;52.546;13.428;2023-07-31T05:54:32;12.90;;;12.50;;
3943;SDS011;1986;52.546;13.428;2023-07-31T05:56:59;12.23;;;11.83;;
3943;SDS011;1986;52.546;13.428;2023-07-31T05:59:26;12.40;;;12.00;;
3943;SDS011;1986;52.546;13.428;2023-07-31T06:01:54;12.90;;;12.40;;
3943;SDS011;1986;52.546;13.428;2023-07-31T06:04:24;14.40;;;13.50;;
3943;SDS011;1986;52.546;13.428;2023-07-31T06:06:51;12.73;;;12.33;;
3943;SDS011;1986;52.546;13.428;2023-07-31T06:09:18;11.90;;;11.50;;
3943;SDS011;1986;52.546;13.428;2023-07-31T06:11:45;12.60;;;12.20;;
3943;SDS011;1986;52.546;13.428;2023-07-31T06:14:12;12.90;;;12.50;;
3943;SDS011;1986;52.546;13.428;2023-07-31T06:16:39;12.40;;;12.00;;
3943;SDS011;1986;52.546;13.428;2023-07-31T06:19:08;12.80;;;11.77;;
3943;SDS011;1986;52.546;13.428;2023-07-31T06:21:37;13.47;;;12.73;;
3943;SDS011;1986;52.546;13.428;2023-07-31T06:24:08;11.70;;;11.40;;
3943;SDS011;1986;52.546;13.428;2023-07-31T06:26:37;11.30;;;11.00;;
3943;SDS011;1986;52.546;13.428;2023-07-31T06:29:04;12.00;;;11.40;;
3943;SDS011;1986;52.546;13.428;2023-07-31T06:31:31;11.20;;;10.90;;
3943;SDS011;1986;52.546;13.428;2023-07-31T06:33:58;11.20;;;10.80;;
3943;SDS011;1986;52.546;13.428;2023-07-31T06:36:26;10.90;;;10.60;;
3943;SDS011;1986;52.546;13.428;2023-07-31T06:38:54;11.20;;;10.90;;
3943;SDS011;1986;52.546;13.428;2023-07-31T06:41:20;10.80;;;10.50;;
3943;SDS011;1986;52.546;13.428;2023-07-31T06:43:49;10.40;;;10.10;;
3943;SDS011;1986;52.546;13.428;2023-07-31T06:46:16;11.17;;;10.87;;
3943;SDS011;1986;52.546;13.428;2023-07-31T06:48:43;10.93;;;10.63;;
3943;SDS011;1986;52.546;13.428;2023-07-31T06:51:10;10.70;;;10.40;;
3943;SDS011;1986;52.546;13.428;2023-07-31T06:53:38;10.00;;;9.80;;
3943;SDS011;1986;52.546;13.428;2023-07-31T06:56:06;9.33;;;9.13;;
3943;SDS011;1986;52.546;13.428;2023-07-31T06:58:33;10.40;;;10.00;;
3943;SDS011;1986;52.546;13.428;2023-07-31T07:01:00;11.00;;;10.50;;
3943;SDS011;1986;52.546;13.428;2023-07-31T07:03:27;10.67;;;10.30;;
3943;SDS011;1986;52.546;13.428;2023-07-31T07:05:54;10.50;;;10.20;;
3943;SDS011;1986;52.546;13.428;2023-07-31T07:08:21;16.03;;;10.43;;
3943;SDS011;1986;52.546;13.428;2023-07-31T07:10:49;10.73;;;10.33;;
3943;SDS011;1986;52.546;13.428;2023-07-31T07:13:16;10.83;;;10.43;;
3943;SDS011;1986;52.546;13.428;2023-07-31T07:15:47;10.20;;;9.90;;
3943;SDS011;1986;52.546;13.428;2023-07-31T07:18:14;12.67;;;12.17;;
3943;SDS011;1986;52.546;13.428;2023-07-31T07:20:46;10.50;;;10.17;;
3943;SDS011;1986;52.546;13.428;2023-07-31T07:23:13;11.23;;;10.77;;
3943;SDS011;1986;52.546;13.428;2023-07-31T07:25:43;10.33;;;10.03;;
3943;SDS011;1986;52.546;13.428;2023-07-31T07:28:13;10.53;;;10.23;;
3943;SDS011;1986;52.546;13.428;2023-07-31T07:30:40;10.87;;;10.57;;
3943;SDS011;1986;52.546;13.428;2023-07-31T07:33:07;11.40;;;11.10;;
3943;SDS011;1986;52.546;13.428;2023-07-31T07:35:35;13.03;;;12.33;;
3943;SDS011;1986;52.546;13.428;2023-07-31T07:38:02;11.60;;;11.30;;
3943;SDS011;1986;52.546;13.428;2023-07-31T07:40:29;11.70;;;11.40;;
3943;SDS011;1986;52.546;13.428;2023-07-31T07:42:58;12.60;;;12.13;;
3943;SDS011;1986;52.546;13.428;2023-07-31T07:45:27;11.63;;;11.23;;
3943;SDS011;1986;52.546;13.428;2023-07-31T07:47:54;10.50;;;10.20;;
3943;SDS011;1986;52.546;13.428;2023-07-31T07:50:21;11.07;;;10.67;;
3943;SDS011;1986;52.546;13.428;2023-07-31T07:52:48;10.60;;;10.30;;
3943;SDS011;1986;52.546;13.428;2023-07-31T07:55:16;12.50;;;11.90;;
3943;SDS011;1986;52.546;13.428;2023-07-31T07:57:43;12.47;;;12.00;;
3943;SDS011;1986;52.546;13.428;2023-07-31T08:00:11;13.80;;;13.20;;
3943;SDS011;1986;52.546;13.428;2023-07-31T08:02:40;11.97;;;11.57;;
3943;SDS011;1986;52.546;13.428;2023-07-31T08:05:08;12.77;;;12.37;;
3943;SDS011;1986;52.546;13.428;2023-07-31T08:07:35;12.27;;;11.87;;
3943;SDS011;1986;52.546;13.428;2023-07-31T08:10:02;11.73;;;11.43;;
3943;SDS011;1986;52.546;13.428;2023-07-31T08:12:29;11.10;;;10.80;;
3943;SDS011;1986;52.546;13.428;2023-07-31T08:14:56;11.47;;;11.10;;
3943;SDS011;1986;52.546;13.428;2023-07-31T08:17:25;10.00;;;9.80;;
3943;SDS011;1986;52.546;13.428;2023-07-31T08:19:53;9.80;;;9.50;;
3943;SDS011;1986;52.546;13.428;2023-07-31T08:22:23;8.90;;;8.70;;
3943;SDS011;1986;52.546;13.428;2023-07-31T08:24:50;9.33;;;8.93;;
3943;SDS011;1986;52.546;13.428;2023-07-31T08:27:17;8.80;;;8.60;;
3943;SDS011;1986;52.546;13.428;2023-07-31T08:29:44;9.87;;;9.60;;
3943;SDS011;1986;52.546;13.428;2023-07-31T08:32:11;9.90;;;9.40;;
3943;SDS011;1986;52.546;13.428;2023-07-31T08:34:38;9.80;;;9.60;;
3943;SDS011;1986;52.546;13.428;2023-07-31T08:37:06;10.40;;;9.83;;
3943;SDS011;1986;52.546;13.428;2023-07-31T08:39:36;10.07;;;9.20;;
3943;SDS011;1986;52.546;13.428;2023-07-31T08:42:07;10.03;;;9.43;;
3943;SDS011;1986;52.546;13.428;2023-07-31T08:44:34;10.93;;;10.63;;
3943;SDS011;1986;52.546;13.428;2023-07-31T08:47:02;10.30;;;10.00;;
3943;SDS011;1986;52.546;13.428;2023-07-31T08:49:30;12.03;;;9.77;;
3943;SDS011;1986;52.546;13.428;2023-07-31T08:51:57;10.03;;;9.73;;
3943;SDS011;1986;52.546;13.428;2023-07-31T08:54:26;9.20;;;8.90;;
3943;SDS011;1986;52.546;13.428;2023-07-31T08:56:56;9.33;;;9.13;;
3943;SDS011;1986;52.546;13.428;2023-07-31T08:59:24;10.30;;;9.60;;
3943;SDS011;1986;52.546;13.428;2023-07-31T09:01:54;9.53;;;9.27;;
3943;SDS011;1986;52.546;13.428;2023-07-31T09:04:23;9.50;;;9.30;;
3943;SDS011;1986;52.546;13.428;2023-07-31T09:06:53;10.70;;;10.03;;
3943;SDS011;1986;52.546;13.428;2023-07-31T09:09:25;10.83;;;10.53;;
3943;SDS011;1986;52.546;13.428;2023-07-31T09:11:52;12.23;;;11.77;;
3943;SDS011;1986;52.546;13.428;2023-07-31T09:14:19;12.77;;;12.27;;
3943;SDS011;1986;52.546;13.428;2023-07-31T09:16:52;12.30;;;11.90;;
3943;SDS011;1986;52.546;13.428;2023-07-31T09:19:24;13.10;;;12.60;;
3943;SDS011;1986;52.546;13.428;2023-07-31T09:21:52;13.10;;;12.60;;
3943;SDS011;1986;52.546;13.428;2023-07-31T09:24:26;12.80;;;12.40;;
3943;SDS011;1986;52.546;13.428;2023-07-31T09:26:53;12.07;;;11.67;;
3943;SDS011;1986;52.546;13.428;2023-07-31T09:29:21;12.97;;;12.47;;
3943;SDS011;1986;52.546;13.428;2023-07-31T09:31:48;13.00;;;12.60;;
3943;SDS011;1986;52.546;13.428;2023-07-31T09:34:15;12.90;;;12.33;;
3943;SDS011;1986;52.546;13.428;2023-07-31T09:36:42;11.10;;;10.80;;
3943;SDS011;1986;52.546;13.428;2023-07-31T09:39:10;14.60;;;13.90;;
3943;SDS011;1986;52.546;13.428;2023-07-31T09:41:40;11.03;;;10.43;;
3943;SDS011;1986;52.546;13.428;2023-07-31T09:44:08;9.20;;;9.00;;
3943;SDS011;1986;52.546;13.428;2023-07-31T09:46:35;8.50;;;8.30;;
3943;SDS011;1986;52.546;13.428;2023-07-31T09:49:06;7.27;;;7.10;;
3943;SDS011;1986;52.546;13.428;2023-07-31T09:51:35;6.80;;;6.70;;
3943;SDS011;1986;52.546;13.428;2023-07-31T09:54:04;7.30;;;7.10;;
3943;SDS011;1986;52.546;13.428;2023-07-31T09:56:45;7.27;;;6.97;;
3943;SDS011;1986;52.546;13.428;2023-07-31T09:59:14;7.03;;;6.93;;
3943;SDS011;1986;52.546;13.428;2023-07-31T10:01:42;8.27;;;7.97;;
3943;SDS011;1986;52.546;13.428;2023-07-31T10:04:11;9.17;;;8.97;;
3943;SDS011;1986;52.546;13.428;2023-07-31T10:06:39;9.73;;;9.33;;
3943;SDS011;1986;52.546;13.428;2023-07-31T10:09:09;10.33;;;10.03;;
3943;SDS011;1986;52.546;13.428;2023-07-31T10:11:43;9.50;;;9.30;;
3943;SDS011;1986;52.546;13.428;2023-07-31T10:14:16;10.17;;;9.90;;
3943;SDS011;1986;52.546;13.428;2023-07-31T10:16:46;10.93;;;10.63;;
3943;SDS011;1986;52.546;13.428;2023-07-31T10:19:13;11.40;;;11.10;;
3943;SDS011;1986;52.546;13.428;2023-07-31T10:21:40;14.63;;;13.93;;
3943;SDS011;1986;52.546;13.428;2023-07-31T10:24:09;13.90;;;12.77;;
3943;SDS011;1986;52.546;13.428;2023-07-31T10:26:37;14.40;;;13.80;;
3943;SDS011;1986;52.546;13.428;2023-07-31T10:29:07;14.33;;;13.73;;
3943;SDS011;1986;52.546;13.428;2023-07-31T10:31:37;16.77;;;15.77;;
3943;SDS011;1986;52.546;13.428;2023-07-31T10:34:05;13.57;;;12.97;;
3943;SDS011;1986;52.546;13.428;2023-07-31T10:36:32;11.73;;;11.33;;
3943;SDS011;1986;52.546;13.428;2023-07-31T10:39:03;12.00;;;11.60;;
3943;SDS011;1986;52.546;13.428;2023-07-31T10:41:54;11.03;;;10.43;;
3943;SDS011;1986;52.546;13.428;2023-07-31T10:44:22;11.17;;;10.87;;
3943;SDS011;1986;52.546;13.428;2023-07-31T10:46:49;10.90;;;10.60;;
3943;SDS011;1986;52.546;13.428;2023-07-31T10:49:20;22.20;;;20.47;;
3943;SDS011;1986;52.546;13.428;2023-07-31T10:51:47;12.20;;;11.80;;
3943;SDS011;1986;52.546;13.428;2023-07-31T10:54:15;15.53;;;14.63;;
3943;SDS011;1986;52.546;13.428;2023-07-31T10:56:44;13.20;;;12.80;;
3943;SDS011;1986;52.546;13.428;2023-07-31T10:59:12;13.87;;;13.37;;
3943;SDS011;1986;52.546;13.428;2023-07-31T11:01:53;14.77;;;14.07;;
3943;SDS011;1986;52.546;13.428;2023-07-31T11:04:22;16.07;;;15.37;;
3943;SDS011;1986;52.546;13.428;2023-07-31T11:06:57;18.50;;;17.40;;
3943;SDS011;1986;52.546;13.428;2023-07-31T11:09:27;17.53;;;16.73;;
3943;SDS011;1986;52.546;13.428;2023-07-31T11:11:56;19.40;;;18.30;;
3943;SDS011;1986;52.546;13.428;2023-07-31T11:14:24;20.40;;;18.90;;
3943;SDS011;1986;52.546;13.428;2023-07-31T11:16:53;20.73;;;19.50;;
3943;SDS011;1986;52.546;13.428;2023-07-31T11:19:23;19.57;;;18.47;;
3943;SDS011;1986;52.546;13.428;2023-07-31T11:21:51;20.47;;;19.37;;
3943;SDS011;1986;52.546;13.428;2023-07-31T11:24:19;20.03;;;18.70;;
3943;SDS011;1986;52.546;13.428;2023-07-31T11:26:50;21.10;;;19.80;;
3943;SDS011;1986;52.546;13.428;2023-07-31T11:29:17;21.23;;;19.93;;
3943;SDS011;1986;52.546;13.428;2023-07-31T11:31:44;21.57;;;19.93;;
3943;SDS011;1986;52.546;13.428;2023-07-31T11:34:14;21.73;;;20.40;;
3943;SDS011;1986;52.546;13.428;2023-07-31T11:36:47;20.20;;;19.10;;
3943;SDS011;1986;52.546;13.428;2023-07-31T11:39:19;19.60;;;18.60;;
3943;SDS011;1986;52.546;13.428;2023-07-31T11:41:47;21.13;;;19.73;;
3943;SDS011;1986;52.546;13.428;2023-07-31T11:44:14;20.50;;;19.30;;
3943;SDS011;1986;52.546;13.428;2023-07-31T11:46:40;19.87;;;18.87;;
3943;SDS011;1986;52.546;13.428;2023-07-31T11:49:08;20.37;;;19.27;;
3943;SDS011;1986;52.546;13.428;2023-07-31T11:51:37;22.03;;;19.90;;
3943;SDS011;1986;52.546;13.428;2023-07-31T11:54:04;22.47;;;20.77;;
3943;SDS011;1986;52.546;13.428;2023-07-31T11:56:31;22.47;;;20.87;;
3943;SDS011;1986;52.546;13.428;2023-07-31T11:58:59;21.23;;;20.00;;
3943;SDS011;1986;52.546;13.428;2023-07-31T12:01:28;20.50;;;19.40;;
3943;SDS011;1986;52.546;13.428;2023-07-31T12:03:55;19.63;;;18.63;;
3943;SDS011;1986;52.546;13.428;2023-07-31T12:06:32;20.93;;;19.67;;
3943;SDS011;1986;52.546;13.428;2023-07-31T12:09:02;20.33;;;19.23;;
3943;SDS011;1986;52.546;13.428;2023-07-31T12:11:30;20.90;;;19.70;;
3943;SDS011;1986;52.546;13.428;2023-07-31T12:13:57;21.10;;;19.60;;
3943;SDS011;1986;52.546;13.428;2023-07-31T12:16:26;21.80;;;20.10;;
3943;SDS011;1986;52.546;13.428;2023-07-31T12:18:54;22.40;;;20.67;;
3943;SDS011;1986;52.546;13.428;2023-07-31T12:21:21;21.77;;;20.50;;
3943;SDS011;1986;52.546;13.428;2023-07-31T12:23:48;19.60;;;18.60;;
3943;SDS011;1986;52.546;13.428;2023-07-31T12:26:16;20.07;;;18.97;;
3943;SDS011;1986;52.546;13.428;2023-07-31T12:28:44;20.23;;;19.23;;
3943;SDS011;1986;52.546;13.428;2023-07-31T12:31:12;22.33;;;20.83;;
3943;SDS011;1986;52.546;13.428;2023-07-31T12:33:42;20.63;;;19.53;;
3943;SDS011;1986;52.546;13.428;2023-07-31T12:36:10;22.60;;;20.90;;
3943;SDS011;1986;52.546;13.428;2023-07-31T12:38:38;20.33;;;19.23;;
3943;SDS011;1986;52.546;13.428;2023-07-31T12:41:06;21.10;;;19.80;;
3943;SDS011;1986;52.546;13.428;2023-07-31T12:43:34;21.90;;;20.07;;
3943;SDS011;1986;52.546;13.428;2023-07-31T12:46:02;22.70;;;21.00;;
3943;SDS011;1986;52.546;13.428;2023-07-31T12:48:29;21.13;;;19.73;;
3943;SDS011;1986;52.546;13.428;2023-07-31T12:50:57;21.60;;;19.90;;
3943;SDS011;1986;52.546;13.428;2023-07-31T12:53:24;20.30;;;19.03;;
3943;SDS011;1986;52.546;13.428;2023-07-31T12:55:51;19.20;;;18.20;;
3943;SDS011;1986;52.546;13.428;2023-07-31T12:58:18;20.57;;;19.17;;
3943;SDS011;1986;52.546;13.428;2023-07-31T13:00:46;20.53;;;19.33;;
3943;SDS011;1986;52.546;13.428;2023-07-31T13:03:13;20.33;;;19.13;;
3943;SDS011;1986;52.546;13.428;2023-07-31T13:05:40;21.23;;;19.40;;
3943;SDS011;1986;52.546;13.428;2023-07-31T13:08:08;20.93;;;19.63;;
3943;SDS011;1986;52.546;13.428;2023-07-31T13:10:35;20.40;;;19.30;;
3943;SDS011;1986;52.546;13.428;2023-07-31T13:13:02;21.17;;;19.93;;
3943;SDS011;1986;52.546;13.428;2023-07-31T13:15:29;20.37;;;19.17;;
3943;SDS011;1986;52.546;13.428;2023-07-31T13:17:57;21.57;;;20.13;;
3943;SDS011;1986;52.546;13.428;2023-07-31T13:20:24;19.73;;;18.63;;
3943;SDS011;1986;52.546;13.428;2023-07-31T13:22:54;20.47;;;19.27;;
3943;SDS011;1986;52.546;13.428;2023-07-31T13:25:21;20.93;;;19.30;;
3943;SDS011;1986;52.546;13.428;2023-07-31T13:27:48;21.17;;;19.60;;
3943;SDS011;1986;52.546;13.428;2023-07-31T13:30:15;20.90;;;19.77;;
3943;SDS011;1986;52.546;13.428;2023-07-31T13:32:42;19.40;;;18.30;;
3943;SDS011;1986;52.546;13.428;2023-07-31T13:35:10;21.17;;;19.90;;
3943;SDS011;1986;52.546;13.428;2023-07-31T13:37:37;22.20;;;20.63;;
3943;SDS011;1986;52.546;13.428;2023-07-31T13:40:04;20.73;;;19.57;;
3943;SDS011;1986;52.546;13.428;2023-07-31T13:42:32;20.30;;;19.20;;
3943;SDS011;1986;52.546;13.428;2023-07-31T13:44:59;20.87;;;19.57;;
3943;SDS011;1986;52.546;13.428;2023-07-31T13:47:26;20.17;;;18.97;;
3943;SDS011;1986;52.546;13.428;2023-07-31T13:49:53;19.40;;;18.30;;
3943;SDS011;1986;52.546;13.428;2023-07-31T13:52:21;20.80;;;19.50;;
3943;SDS011;1986;52.546;13.428;2023-07-31T13:54:48;22.20;;;20.90;;
3943;SDS011;1986;52.546;13.428;2023-07-31T13:57:15;21.80;;;20.50;;
3943;SDS011;1986;52.546;13.428;2023-07-31T13:59:42;23.10;;;21.60;;
3943;SDS011;1986;52.546;13.428;2023-07-31T14:02:09;21.10;;;19.80;;
3943;SDS011;1986;52.546;13.428;2023-07-31T14:04:36;21.50;;;20.20;;
3943;SDS011;1986;52.546;13.428;2023-07-31T14:07:03;21.97;;;20.67;;
3943;SDS011;1986;52.546;13.428;2023-07-31T14:09:31;22.13;;;20.73;;
3943;SDS011;1986;52.546;13.428;2023-07-31T14:11:58;21.37;;;20.07;;
3943;SDS011;1986;52.546;13.428;2023-07-31T14:14:25;23.30;;;21.67;;
3943;SDS011;1986;52.546;13.428;2023-07-31T14:16:52;21.40;;;20.00;;
3943;SDS011;1986;52.546;13.428;2023-07-31T14:19:19;21.80;;;20.20;;
3943;SDS011;1986;52.546;13.428;2023-07-31T14:21:46;22.93;;;21.43;;
3943;SDS011;1986;52.546;13.428;2023-07-31T14:24:13;23.37;;;21.50;;
3943;SDS011;1986;52.546;13.428;2023-07-31T14:26:41;22.77;;;21.37;;
3943;SDS011;1986;52.546;13.428;2023-07-31T14:29:08;22.87;;;21.37;;
3943;SDS011;1986;52.546;13.428;2023-07-31T14:31:35;21.77;;;20.47;;
3943;SDS011;1986;52.546;13.428;2023-07-31T14:34:02;22.70;;;21.00;;
3943;SDS011;1986;52.546;13.428;2023-07-31T14:36:29;21.37;;;20.07;;
3943;SDS011;1986;52.546;13.428;2023-07-31T14:38:56;21.10;;;19.90;;
3943;SDS011;1986;52.546;13.428;2023-07-31T14:41:23;21.30;;;20.00;;
3943;SDS011;1986;52.546;13.428;2023-07-31T14:43:51;22.03;;;20.63;;
3943;SDS011;1986;52.546;13.428;2023-07-31T14:46:18;21.83;;;20.50;;